Thunder radar more information blitzortung!


Löydät sääaseman tiedot myös:

European Weather Network

Finland Weather Exchange

Weather Underground

AWEKAS



Weather Underground säähistoriasivu

Päivittäin yhteenveto Syyskuu 8, 2017 Yksiköt:  Englantilaiset    Metriset   Molemmat
« Edellinen Päivä
Seuraava Päivä »
Päivittäin Viikoittain Kuukausittain Vuosittain Mukautettu
  Korkea: Matala: Keskiarvo:
Lämpötila: TemperatureC °F 8.2 °F 9.8 °F
Kastepiste: DewpointC °F 7.6 °F 9 °F
Kosteus: Humidity % 87 % 94 %
Tuulen nopeus: WindSpeedKMH mph 0.0 mph 0.1 mph
Tuulenpuuska: WindSpeedGustKMH mph - -
Tuuli:- - SSE
Ilmanpaine: PressurehPa in 998.9 in -
Sade: 0.3 in    
Historical Graphs
 
 
Taulukkotiedot Syyskuu 8, 2017
Aika Lämpötila Kastepiste Ilmanpaine Tuuli Tuulen nopeus Tuulenpuuska Kosteus Sademäärä (tunneittain)
TemperatureC °F DewpointC °F PressurehPa in Calm     Humidity % HourlyPrecipMM in
00:00 8.6 °F 7.8 °F 1003.9 in Calm     95 % 0.0 in
00:15 8.6 °F 7.8 °F 1003.9 in Calm     95 % 0.0 in
00:30 8.5 °F 7.7 °F 1003.9 in Calm   3.2 mph 95 % 0.0 in
00:45 8.4 °F 7.7 °F 1003.6 in Calm     95 % 0.0 in
01:00 8.5 °F 7.7 °F 1003.6 in Calm     95 % 0.0 in
01:15 8.5 °F 7.7 °F 1003.3 in Calm   1.6 mph 95 % 0.0 in
01:30 8.5 °F 7.7 °F 1003.3 in Calm     95 % 0.0 in
01:45 8.5 °F 7.9 °F 1002.9 in Calm     96 % 0.0 in
02:00 8.6 °F 8.0 °F 1002.6 in Calm     96 % 0.0 in
02:15 8.6 °F 8.0 °F 1002.6 in Calm     96 % 0.0 in
02:30 8.6 °F 8.0 °F 1002.3 in Calm     96 % 0.0 in
02:45 8.6 °F 8.0 °F 1002.3 in Calm     96 % 0.0 in
03:00 8.6 °F 8.0 °F 1002.3 in Calm     96 % 0.0 in
03:15 8.6 °F 8.0 °F 1001.9 in Calm     96 % 0.0 in
03:30 8.6 °F 8.0 °F 1001.9 in Calm     96 % 0.0 in
03:45 8.6 °F 8.0 °F 1001.6 in Calm     96 % 0.0 in
04:00 8.6 °F 8.0 °F 1001.6 in Calm   1.6 mph 96 % 0.0 in
04:15 8.6 °F 8.0 °F 1001.6 in Calm     96 % 0.0 in
04:30 8.7 °F 8.2 °F 1001.2 in Calm     97 % 0.0 in
04:45 8.7 °F 8.2 °F 1001.2 in Calm     97 % 0.0 in
05:00 8.7 °F 8.2 °F 1000.9 in Calm     97 % 0.0 in
05:15 8.7 °F 8.2 °F 1000.9 in Calm     97 % 0.0 in
05:30 8.7 °F 8.2 °F 1000.6 in Calm     97 % 0.0 in
05:45 8.7 °F 8.2 °F 1000.6 in Calm     97 % 0.0 in
06:00 8.7 °F 8.2 °F 1000.2 in Calm     97 % 0.0 in
06:30 8.7 °F 8.2 °F 999.9 in Calm     97 % 0.0 in
06:45 8.7 °F 8.2 °F 999.9 in Calm     97 % 0.0 in
07:00 8.7 °F 8.3 °F 999.5 in Calm     97 % 0.0 in
07:15 8.7 °F 8.3 °F 999.5 in Calm     97 % 0.3 in
07:30 8.7 °F 8.3 °F 999.5 in Calm     97 % 0.3 in
07:45 8.8 °F 8.3 °F 999.5 in Calm     97 % 0.3 in
08:15 8.8 °F 8.4 °F 999.2 in Calm     97 % 0.0 in
08:30 8.9 °F 8.4 °F 999.2 in Calm     97 % 0.0 in
08:45 9.0 °F 8.5 °F 999.2 in Calm     97 % 0.0 in
09:00 9.1 °F 8.6 °F 999.2 in Calm     97 % 0.0 in
09:15 9.1 °F 8.7 °F 999.2 in Calm     97 % 0.0 in
09:30 9.2 °F 8.9 °F 998.9 in Calm     98 % 0.0 in
09:45 9.5 °F 9.2 °F 998.9 in Calm     98 % 0.0 in
10:00 9.6 °F 9.3 °F 998.9 in Calm     98 % 0.0 in
10:15 9.5 °F 9.2 °F 998.9 in Calm     98 % 0.0 in
10:30 9.6 °F 9.3 °F 998.9 in Calm     98 % 0.0 in
10:45 9.7 °F 9.4 °F 998.9 in Calm     98 % 0.0 in
11:00 9.7 °F 9.2 °F 998.9 in Calm     97 % 0.0 in
11:15 9.7 °F 9.3 °F 998.9 in Calm   1.6 mph 97 % 0.0 in
11:30 9.9 °F 9.6 °F 998.9 in Calm     98 % 0.0 in
11:45 10.1 °F 9.7 °F 998.9 in Calm     97 % 0.0 in
12:00 10.3 °F 9.8 °F 998.9 in Calm     97 % 0.0 in
12:15 10.3 °F 9.8 °F 998.9 in Calm   3.2 mph 97 % 0.0 in
12:30 10.5 °F 10.0 °F 998.9 in Calm   3.2 mph 97 % 0.0 in
12:45 10.6 °F 9.8 °F 998.9 in SSE 1.6 mph 6.4 mph 95 % 0.0 in
13:00 10.8 °F 10.2 °F 998.9 in Calm   6.4 mph 96 % 0.0 in
13:15 10.9 °F 10.2 °F 998.9 in Calm     95 % 0.0 in
13:30 11.1 °F 10.3 °F 998.9 in Calm   4.8 mph 95 % 0.0 in
13:45 11.3 °F 10.4 °F 998.9 in Calm   3.2 mph 94 % 0.0 in
14:00 11.8 °F 10.7 °F 999.2 in Calm   3.2 mph 93 % 0.0 in
14:15 12.0 °F 10.1 °F 998.9 in SSW 1.6 mph 8.0 mph 88 % 0.0 in
14:30 11.9 °F 10.3 °F 999.2 in Calm   6.4 mph 90 % 0.0 in
14:45 11.7 °F 9.9 °F 999.2 in Calm     89 % 0.0 in
15:00 11.8 °F 10.2 °F 999.2 in Calm   8.0 mph 90 % 0.0 in
15:15 11.8 °F 10.2 °F 999.5 in Calm   6.4 mph 90 % 0.0 in
15:30 11.7 °F 10.1 °F 999.5 in SSE 1.6 mph 8.0 mph 90 % 0.0 in
15:45 11.9 °F 10.0 °F 999.5 in Calm   8.0 mph 88 % 0.0 in
16:00 12.3 °F 10.2 °F 999.5 in Calm   8.0 mph 87 % 0.0 in
16:15 12.3 °F 10.3 °F 999.5 in Calm     88 % 0.0 in
16:30 11.9 °F 10.0 °F 999.5 in Calm     88 % 0.0 in
16:45 11.8 °F 10.2 °F 999.5 in Calm     90 % 0.0 in
17:00 11.7 °F 10.0 °F 999.5 in Calm     89 % 0.0 in
17:15 11.7 °F 10.2 °F 999.5 in Calm     91 % 0.0 in
17:30 11.9 °F 10.7 °F 999.5 in Calm     92 % 0.0 in
17:45 12.1 °F 10.5 °F 999.5 in Calm     90 % 0.0 in
18:00 12.1 °F 10.6 °F 999.5 in Calm     91 % 0.0 in
18:15 11.8 °F 10.4 °F 999.9 in Calm   3.2 mph 91 % 0.0 in
18:30 11.6 °F 10.3 °F 999.9 in Calm     92 % 0.0 in
18:45 11.3 °F 10.2 °F 999.9 in Calm     93 % 0.0 in
19:00 11.1 °F 10.0 °F 999.9 in Calm     93 % 0.0 in
19:15 10.8 °F 9.9 °F 999.9 in Calm     94 % 0.0 in
19:30 10.6 °F 9.7 °F 999.9 in Calm     94 % 0.0 in
19:45 10.5 °F 9.7 °F 999.9 in Calm     95 % 0.0 in
20:00 10.4 °F 9.7 °F 999.9 in Calm     95 % 0.0 in
20:15 10.4 °F 9.6 °F 999.9 in Calm     95 % 0.0 in
20:45 10.2 °F 9.6 °F 999.9 in Calm     96 % 0.0 in
21:00 10.2 °F 9.4 °F 999.9 in Calm     95 % 0.0 in
21:15 10.1 °F 9.4 °F 1000.2 in Calm     96 % 0.0 in
21:30 10.0 °F 9.4 °F 1000.2 in Calm     96 % 0.0 in
21:45 9.9 °F 9.3 °F 1000.2 in Calm     96 % 0.0 in
22:00 9.9 °F 9.3 °F 1000.2 in Calm     96 % 0.0 in
22:15 9.8 °F 9.2 °F 1000.2 in Calm     96 % 0.0 in
22:30 9.6 °F 9.0 °F 999.9 in Calm     96 % 0.0 in
22:45 9.4 °F 8.8 °F 1000.2 in Calm     96 % 0.0 in
23:00 9.1 °F 8.5 °F 1000.2 in Calm     96 % 0.0 in
23:15 8.8 °F 8.2 °F 1000.2 in Calm     96 % 0.0 in
23:30 8.4 °F 7.8 °F 1000.2 in Calm     96 % 0.0 in
23:45 8.2 °F 7.6 °F 1000.2 in Calm     96 % 0.0 in
Esan sääasema
Terveisin Weather Underground - 2.75 mb

Alkuperäinen skripti  Jim McMurry - jmcmurry@mwt.net Sovitettu myös templatelle  Wim van der Kuil - Leuven-Template.eu

Laitteet joita käytämme:

Sääasema
Davis VP2

Sääasemaohjelma
Cumulus

Sääaseman tietokone
Asus EeePC

Palveluntarjoaja
Suncomet

Davis VP2

Cumulus

Asus EeePC

Suncomet